Time;durP1;ratioP1;P1;durP2;ratioP2;P2;SDS_P1;SDS_P2;PMS_P1;PMS_P2;Temp;Humidity;BMP_temperature;BMP_pressure;BME280_temperature;BME280_humidity;BME280_pressure;Samples;Min_cycle;Max_cycle;Signal;HPM_P1;HPM_P2
2022/09/10 00:00:42;;;;;;;1.87;1.13;;;;;;;;;;5053635;28;20449;-57
2022/09/10 00:09:16;;;;;;;1.53;1.43;;;;;;;;;;5053436;28;20420;-59
2022/09/10 00:11:45;;;;;;;2.37;1.00;;;;;;;;;;5053430;28;20463;-59
2022/09/10 00:14:14;;;;;;;2.00;1.20;;;;;;;;;;5053310;28;20524;-60
2022/09/10 00:16:41;;;;;;;2.20;1.30;;;;;;;;;;5053145;28;21069;-59
2022/09/10 00:19:08;;;;;;;2.83;1.57;;;;;;;;;;5053530;28;20455;-60
2022/09/10 00:21:35;;;;;;;5.73;1.43;;;;;;;;;;5053319;28;20444;-59
2022/09/10 00:24:03;;;;;;;1.80;1.57;;;;;;;;;;5053152;28;20452;-59
2022/09/10 00:26:31;;;;;;;1.53;1.30;;;;;;;;;;5053123;28;20502;-59
2022/09/10 00:29:00;;;;;;;1.37;1.27;;;;;;;;;;5053325;28;20476;-59
2022/09/10 00:31:28;;;;;;;4.13;1.23;;;;;;;;;;5053178;28;20808;-59
2022/09/10 00:33:55;;;;;;;2.30;1.30;;;;;;;;;;5053192;28;20536;-59
2022/09/10 00:36:23;;;;;;;5.63;1.63;;;;;;;;;;5053015;28;20464;-59
2022/09/10 00:38:51;;;;;;;2.17;1.67;;;;;;;;;;5052934;28;20480;-59
2022/09/10 00:41:18;;;;;;;2.30;1.30;;;;;;;;;;5052850;28;20545;-59
2022/09/10 00:43:49;;;;;;;1.93;1.40;;;;;;;;;;5052822;28;20967;-60
2022/09/10 00:46:20;;;;;;;1.87;1.73;;;;;;;;;;5053288;28;20456;-59
2022/09/10 00:48:48;;;;;;;2.80;1.93;;;;;;;;;;5052738;28;20468;-60
2022/09/10 00:51:15;;;;;;;2.17;1.73;;;;;;;;;;5052830;28;20463;-60
2022/09/10 00:53:42;;;;;;;3.93;1.63;;;;;;;;;;5052672;28;20444;-59
2022/09/10 00:56:09;;;;;;;1.83;1.73;;;;;;;;;;5052896;28;20491;-60
2022/09/10 00:58:36;;;;;;;1.90;1.53;;;;;;;;;;5053080;28;20539;-60
2022/09/10 01:01:03;;;;;;;2.20;1.30;;;;;;;;;;5052822;28;20445;-60
2022/09/10 01:03:32;;;;;;;2.43;1.50;;;;;;;;;;5052735;28;20608;-60
2022/09/10 01:05:59;;;;;;;1.50;1.40;;;;;;;;;;5052687;28;20444;-59
2022/09/10 01:08:27;;;;;;;1.60;1.47;;;;;;;;;;5052517;28;20480;-60
2022/09/10 01:11:00;;;;;;;2.17;1.77;;;;;;;;;;5052769;28;20455;-60
2022/09/10 01:13:34;;;;;;;1.67;1.43;;;;;;;;;;5052749;28;20543;-60
2022/09/10 01:16:07;;;;;;;1.77;1.53;;;;;;;;;;5052822;28;20472;-60
2022/09/10 01:18:43;;;;;;;1.70;1.40;;;;;;;;;;5056686;28;20476;-60
2022/09/10 01:21:22;;;;;;;2.00;1.90;;;;;;;;;;5056633;28;20455;-60
2022/09/10 01:24:00;;;;;;;2.07;1.80;;;;;;;;;;5056705;28;20788;-60
2022/09/10 01:26:35;;;;;;;5.33;1.80;;;;;;;;;;5056575;28;20447;-60
2022/09/10 01:29:07;;;;;;;4.03;1.77;;;;;;;;;;5056347;28;20447;-59
2022/09/10 01:31:39;;;;;;;1.73;1.53;;;;;;;;;;5056478;28;20470;-60
2022/09/10 01:34:08;;;;;;;2.63;1.83;;;;;;;;;;5056361;28;20455;-60
2022/09/10 01:36:38;;;;;;;2.13;1.57;;;;;;;;;;5056235;28;20517;-60
2022/09/10 01:39:05;;;;;;;2.33;1.70;;;;;;;;;;5056269;28;20476;-60
2022/09/10 01:41:32;;;;;;;2.47;1.57;;;;;;;;;;5056122;28;20458;-60
2022/09/10 01:43:59;;;;;;;2.73;2.00;;;;;;;;;;5056071;28;20931;-60
2022/09/10 01:46:32;;;;;;;2.23;1.73;;;;;;;;;;5056127;28;20452;-60
2022/09/10 01:49:13;;;;;;;1.67;1.20;;;;;;;;;;5056172;28;20537;-59
2022/09/10 01:51:48;;;;;;;1.70;1.50;;;;;;;;;;5056089;28;20448;-60
2022/09/10 01:54:23;;;;;;;1.90;1.70;;;;;;;;;;5055884;28;20954;-60
2022/09/10 01:56:52;;;;;;;2.03;1.73;;;;;;;;;;5056206;28;20490;-60
2022/09/10 01:59:23;;;;;;;1.80;1.70;;;;;;;;;;5055999;28;20448;-60
2022/09/10 02:01:54;;;;;;;1.90;1.80;;;;;;;;;;5055876;28;20546;-60
2022/09/10 02:04:22;;;;;;;4.17;2.20;;;;;;;;;;5055827;28;21011;-60
2022/09/10 02:06:50;;;;;;;2.10;1.93;;;;;;;;;;5055653;28;20539;-60
2022/09/10 02:09:18;;;;;;;3.13;1.87;;;;;;;;;;5055832;28;20452;-60
2022/09/10 02:11:47;;;;;;;4.03;2.30;;;;;;;;;;5055785;28;20533;-59
2022/09/10 02:14:14;;;;;;;2.07;1.87;;;;;;;;;;5056019;28;20456;-60
2022/09/10 02:16:43;;;;;;;2.20;2.00;;;;;;;;;;5055543;28;20475;-60
2022/09/10 02:19:11;;;;;;;2.63;2.10;;;;;;;;;;5055384;28;20447;-60
2022/09/10 02:21:38;;;;;;;2.67;2.47;;;;;;;;;;5055905;28;20454;-60
2022/09/10 02:24:06;;;;;;;3.07;1.90;;;;;;;;;;5055755;28;20452;-60
2022/09/10 02:26:33;;;;;;;2.67;1.80;;;;;;;;;;5055440;28;20455;-59
2022/09/10 02:29:00;;;;;;;3.00;1.97;;;;;;;;;;5054668;28;20459;-60
2022/09/10 02:31:28;;;;;;;2.77;2.07;;;;;;;;;;5055293;28;20876;-60
2022/09/10 02:33:55;;;;;;;2.00;1.80;;;;;;;;;;5055109;28;20458;-60
2022/09/10 02:36:24;;;;;;;2.30;2.07;;;;;;;;;;5055226;28;20888;-59
2022/09/10 02:38:51;;;;;;;2.33;2.07;;;;;;;;;;5055252;28;20500;-60
2022/09/10 02:41:21;;;;;;;2.30;2.00;;;;;;;;;;5055180;28;20452;-59
2022/09/10 02:43:48;;;;;;;3.10;1.93;;;;;;;;;;5055060;28;20855;-59
2022/09/10 02:46:15;;;;;;;2.23;2.13;;;;;;;;;;5054825;28;21005;-60
2022/09/10 02:48:42;;;;;;;2.03;1.80;;;;;;;;;;5054810;28;20468;-60
2022/09/10 02:51:09;;;;;;;1.70;1.60;;;;;;;;;;5055059;28;20444;-60
2022/09/10 02:53:37;;;;;;;2.20;1.73;;;;;;;;;;5054954;28;20444;-60
2022/09/10 02:56:06;;;;;;;4.87;1.80;;;;;;;;;;5054768;28;20875;-60
2022/09/10 02:58:33;;;;;;;3.47;1.97;;;;;;;;;;5054696;28;20452;-59
2022/09/10 03:01:06;;;;;;;2.20;2.03;;;;;;;;;;5054646;28;20452;-60
2022/09/10 03:03:33;;;;;;;4.23;2.03;;;;;;;;;;5054882;28;20891;-60
2022/09/10 03:06:00;;;;;;;2.30;2.20;;;;;;;;;;5054706;28;20470;-60
2022/09/10 03:08:27;;;;;;;2.70;2.20;;;;;;;;;;5054630;28;21039;-60
2022/09/10 03:10:58;;;;;;;4.27;2.60;;;;;;;;;;5054492;28;20451;-60
2022/09/10 03:13:26;;;;;;;2.17;1.87;;;;;;;;;;5054311;28;21001;-59
2022/09/10 03:15:53;;;;;;;2.80;2.13;;;;;;;;;;5054596;28;20539;-59
2022/09/10 03:18:21;;;;;;;3.63;1.80;;;;;;;;;;5054565;28;20516;-60
2022/09/10 03:20:48;;;;;;;3.90;2.27;;;;;;;;;;5054361;28;20947;-60
2022/09/10 03:23:15;;;;;;;1.97;1.80;;;;;;;;;;5054297;28;20535;-59
2022/09/10 03:25:42;;;;;;;2.47;2.20;;;;;;;;;;5054204;28;20452;-60
2022/09/10 03:28:11;;;;;;;6.50;1.90;;;;;;;;;;5054155;28;20793;-60
2022/09/10 03:30:39;;;;;;;5.63;2.03;;;;;;;;;;5054509;28;20464;-60
2022/09/10 03:33:06;;;;;;;3.17;2.43;;;;;;;;;;5054447;28;20476;-59
2022/09/10 03:35:33;;;;;;;4.37;2.20;;;;;;;;;;5054143;28;20452;-60
2022/09/10 03:38:01;;;;;;;2.47;1.90;;;;;;;;;;5053951;28;20487;-59
2022/09/10 03:40:29;;;;;;;1.93;1.80;;;;;;;;;;5052856;28;20463;-60
2022/09/10 03:42:56;;;;;;;2.30;2.07;;;;;;;;;;5054095;28;20452;-60
2022/09/10 03:45:24;;;;;;;2.50;2.30;;;;;;;;;;5053945;28;20449;-60
2022/09/10 03:47:51;;;;;;;2.10;1.90;;;;;;;;;;5053750;28;21001;-59
2022/09/10 03:50:19;;;;;;;2.37;2.17;;;;;;;;;;5053859;28;20452;-60
2022/09/10 03:52:46;;;;;;;2.43;2.27;;;;;;;;;;5053700;28;20519;-61
2022/09/10 03:55:13;;;;;;;2.80;2.60;;;;;;;;;;5053881;28;20848;-60
2022/09/10 03:57:40;;;;;;;2.13;1.90;;;;;;;;;;5053717;28;20488;-60
2022/09/10 04:00:10;;;;;;;2.60;1.97;;;;;;;;;;5053900;28;20461;-60
2022/09/10 04:02:40;;;;;;;4.33;2.57;;;;;;;;;;5053614;28;20451;-60
2022/09/10 04:05:07;;;;;;;4.10;2.37;;;;;;;;;;5053841;28;20448;-60
2022/09/10 04:07:35;;;;;;;2.73;2.53;;;;;;;;;;5053335;28;20444;-60
2022/09/10 04:10:02;;;;;;;4.13;2.57;;;;;;;;;;5053633;28;20498;-60
2022/09/10 04:12:29;;;;;;;2.90;2.70;;;;;;;;;;5053534;28;20460;-60
2022/09/10 04:14:56;;;;;;;2.27;2.07;;;;;;;;;;5053377;28;20452;-60
2022/09/10 04:17:24;;;;;;;2.90;2.67;;;;;;;;;;5053173;28;20993;-60
2022/09/10 04:19:52;;;;;;;2.70;2.50;;;;;;;;;;5053452;28;20459;-61
2022/09/10 04:22:19;;;;;;;3.67;2.20;;;;;;;;;;5053381;28;20452;-60
2022/09/10 04:24:46;;;;;;;2.13;2.03;;;;;;;;;;5053106;28;20452;-60
2022/09/10 04:27:14;;;;;;;3.80;2.70;;;;;;;;;;5053205;28;20456;-60
2022/09/10 04:29:41;;;;;;;3.47;2.83;;;;;;;;;;5053134;28;20513;-59
2022/09/10 04:32:09;;;;;;;3.10;2.90;;;;;;;;;;5053064;28;20797;-59
2022/09/10 04:34:36;;;;;;;3.73;2.60;;;;;;;;;;5052966;28;20444;-60
2022/09/10 04:37:05;;;;;;;5.20;2.67;;;;;;;;;;5053337;28;20476;-59
2022/09/10 04:39:32;;;;;;;2.43;2.33;;;;;;;;;;5053216;28;20495;-59
2022/09/10 04:41:59;;;;;;;5.43;2.50;;;;;;;;;;5053077;28;20455;-59
2022/09/10 04:44:28;;;;;;;2.63;2.43;;;;;;;;;;5052948;28;20487;-59
2022/09/10 04:46:55;;;;;;;8.00;2.30;;;;;;;;;;5052787;28;20455;-59
2022/09/10 04:49:22;;;;;;;4.43;2.33;;;;;;;;;;5052876;28;20547;-59
2022/09/10 04:51:49;;;;;;;2.20;2.10;;;;;;;;;;5052687;28;20883;-59
2022/09/10 04:54:18;;;;;;;3.57;2.47;;;;;;;;;;5052854;28;20444;-59
2022/09/10 04:56:46;;;;;;;3.73;2.50;;;;;;;;;;5052691;28;20471;-59
2022/09/10 04:59:13;;;;;;;3.80;2.53;;;;;;;;;;5052999;28;20555;-59
2022/09/10 05:01:41;;;;;;;3.70;2.43;;;;;;;;;;5052700;28;20879;-59
2022/09/10 05:04:08;;;;;;;3.00;2.70;;;;;;;;;;5052898;28;20459;-59
2022/09/10 05:06:34;;;;;;;4.30;2.50;;;;;;;;;;5052724;28;20872;-59
2022/09/10 05:09:02;;;;;;;2.53;2.17;;;;;;;;;;5052615;28;20452;-59
2022/09/10 05:11:30;;;;;;;2.90;2.27;;;;;;;;;;5052548;28;20453;-59
2022/09/10 05:13:57;;;;;;;4.27;2.50;;;;;;;;;;5052526;28;20459;-59
2022/09/10 05:16:24;;;;;;;4.03;2.33;;;;;;;;;;5052391;28;20491;-59
2022/09/10 05:18:52;;;;;;;5.87;2.30;;;;;;;;;;5052438;28;20484;-59
2022/09/10 05:21:19;;;;;;;3.60;2.67;;;;;;;;;;5052438;28;20530;-59
2022/09/10 05:23:46;;;;;;;4.00;2.67;;;;;;;;;;5052442;28;20547;-59
2022/09/10 05:26:13;;;;;;;3.40;2.20;;;;;;;;;;5052659;28;20974;-59
2022/09/10 05:28:42;;;;;;;2.40;2.20;;;;;;;;;;5052601;28;20467;-59
2022/09/10 05:31:09;;;;;;;2.20;2.00;;;;;;;;;;5052630;28;20455;-60
2022/09/10 05:33:38;;;;;;;2.63;2.30;;;;;;;;;;5052545;28;20873;-59
2022/09/10 05:36:07;;;;;;;2.50;2.30;;;;;;;;;;5052325;28;20947;-59
2022/09/10 05:38:35;;;;;;;5.20;2.83;;;;;;;;;;5052829;28;20515;-59
2022/09/10 05:41:02;;;;;;;3.53;2.70;;;;;;;;;;5052368;28;20448;-59
2022/09/10 05:43:28;;;;;;;5.43;2.70;;;;;;;;;;5052244;28;20455;-59
2022/09/10 05:45:57;;;;;;;2.50;2.30;;;;;;;;;;5052433;28;20451;-59
2022/09/10 05:48:24;;;;;;;2.57;2.37;;;;;;;;;;5052127;28;20472;-59
2022/09/10 05:50:51;;;;;;;3.23;2.53;;;;;;;;;;5052188;28;20943;-59
2022/09/10 05:53:18;;;;;;;3.47;2.33;;;;;;;;;;5052476;28;20452;-59
2022/09/10 05:55:45;;;;;;;3.23;2.20;;;;;;;;;;5052173;28;20481;-59
2022/09/10 05:58:13;;;;;;;2.80;1.83;;;;;;;;;;5052343;28;20848;-59
2022/09/10 06:00:42;;;;;;;2.20;2.03;;;;;;;;;;5052219;28;20456;-59
2022/09/10 06:03:11;;;;;;;2.70;2.20;;;;;;;;;;5052668;28;20452;-59
2022/09/10 06:05:38;;;;;;;4.13;2.03;;;;;;;;;;5055820;28;20452;-60
2022/09/10 06:08:05;;;;;;;2.67;1.97;;;;;;;;;;5055764;28;20452;-60
2022/09/10 06:10:33;;;;;;;3.07;2.30;;;;;;;;;;5055821;28;20448;-59
2022/09/10 06:13:00;;;;;;;4.50;2.20;;;;;;;;;;5055757;28;20463;-59
2022/09/10 06:15:27;;;;;;;4.87;1.93;;;;;;;;;;5055760;28;20546;-59
2022/09/10 06:17:54;;;;;;;2.13;1.87;;;;;;;;;;5055453;28;20478;-59
2022/09/10 06:20:24;;;;;;;1.83;1.60;;;;;;;;;;5055559;28;20455;-60
2022/09/10 06:22:51;;;;;;;2.50;1.67;;;;;;;;;;5055382;28;20540;-60
2022/09/10 06:25:18;;;;;;;1.93;1.80;;;;;;;;;;5055583;28;20507;-60
2022/09/10 06:27:45;;;;;;;3.27;1.80;;;;;;;;;;5055477;28;20456;-60
2022/09/10 06:30:13;;;;;;;2.43;1.67;;;;;;;;;;5055367;28;20452;-59
2022/09/10 06:32:40;;;;;;;3.60;1.73;;;;;;;;;;5055305;28;20510;-59
2022/09/10 06:35:07;;;;;;;2.07;1.60;;;;;;;;;;5055232;28;20455;-60
2022/09/10 06:37:35;;;;;;;2.20;2.00;;;;;;;;;;5055307;28;20468;-59
2022/09/10 06:40:02;;;;;;;4.10;1.67;;;;;;;;;;5055551;28;20452;-59
2022/09/10 06:42:31;;;;;;;1.60;1.23;;;;;;;;;;5055177;28;20531;-60
2022/09/10 06:44:59;;;;;;;1.93;1.57;;;;;;;;;;5055090;28;20448;-59
2022/09/10 06:47:25;;;;;;;2.17;1.33;;;;;;;;;;5054789;28;20495;-60
2022/09/10 06:49:52;;;;;;;2.53;1.37;;;;;;;;;;5054912;28;20452;-60
2022/09/10 06:52:19;;;;;;;4.00;1.80;;;;;;;;;;5054811;28;20944;-59
2022/09/10 06:54:48;;;;;;;2.70;1.13;;;;;;;;;;5054945;28;20448;-60
2022/09/10 06:57:15;;;;;;;2.87;1.90;;;;;;;;;;5054978;28;20535;-59
2022/09/10 06:59:42;;;;;;;2.10;1.30;;;;;;;;;;5054747;28;20480;-60
2022/09/10 07:02:09;;;;;;;2.30;1.57;;;;;;;;;;5054781;28;20872;-59
2022/09/10 07:04:36;;;;;;;1.23;1.13;;;;;;;;;;5054486;28;20523;-59
2022/09/10 07:07:03;;;;;;;3.30;1.30;;;;;;;;;;5054939;28;20452;-59
2022/09/10 07:09:30;;;;;;;2.97;1.43;;;;;;;;;;5054680;28;20487;-59
2022/09/10 07:11:59;;;;;;;4.60;1.50;;;;;;;;;;5054600;28;20452;-59
2022/09/10 07:14:26;;;;;;;1.30;1.20;;;;;;;;;;5054234;28;20453;-60
2022/09/10 07:16:54;;;;;;;1.53;1.43;;;;;;;;;;5054360;28;20539;-59
2022/09/10 07:19:21;;;;;;;2.90;1.20;;;;;;;;;;5054387;28;20502;-59
2022/09/10 07:21:48;;;;;;;6.60;1.50;;;;;;;;;;5054543;28;20544;-59
2022/09/10 07:24:15;;;;;;;1.40;1.27;;;;;;;;;;5054255;28;21013;-59
2022/09/10 07:26:42;;;;;;;3.57;1.70;;;;;;;;;;5054222;28;20979;-59
2022/09/10 07:29:11;;;;;;;1.67;1.10;;;;;;;;;;5054190;28;20540;-60
2022/09/10 07:31:40;;;;;;;2.80;1.40;;;;;;;;;;5054139;28;20908;-59
2022/09/10 07:34:07;;;;;;;3.00;1.40;;;;;;;;;;5054241;28;20448;-59
2022/09/10 07:36:34;;;;;;;2.73;1.20;;;;;;;;;;5054221;28;20831;-59
2022/09/10 07:39:02;;;;;;;1.60;1.20;;;;;;;;;;5053992;28;20562;-59
2022/09/10 07:41:30;;;;;;;5.70;1.47;;;;;;;;;;5054124;28;20444;-59
2022/09/10 07:43:58;;;;;;;2.07;1.60;;;;;;;;;;5054033;28;20451;-59
2022/09/10 07:46:27;;;;;;;1.50;1.13;;;;;;;;;;5053830;28;20459;-59
2022/09/10 07:48:54;;;;;;;1.93;1.30;;;;;;;;;;5053788;28;20468;-59
2022/09/10 07:51:22;;;;;;;2.10;1.20;;;;;;;;;;5053895;28;20444;-59
2022/09/10 07:53:52;;;;;;;1.60;1.40;;;;;;;;;;5054000;28;20816;-59
2022/09/10 07:56:19;;;;;;;3.77;1.30;;;;;;;;;;5053684;28;20962;-59
2022/09/10 07:58:46;;;;;;;2.53;1.30;;;;;;;;;;5053545;28;20480;-59
2022/09/10 08:01:13;;;;;;;2.43;1.33;;;;;;;;;;5053794;28;20555;-59
2022/09/10 08:03:42;;;;;;;3.60;1.20;;;;;;;;;;5054097;28;20449;-59
2022/09/10 08:06:09;;;;;;;1.57;1.17;;;;;;;;;;5053706;28;20460;-59
2022/09/10 08:08:37;;;;;;;2.10;1.07;;;;;;;;;;5053456;28;20551;-59
2022/09/10 08:11:05;;;;;;;4.17;1.20;;;;;;;;;;5053493;28;20503;-59
2022/09/10 08:13:32;;;;;;;8.43;1.70;;;;;;;;;;5053488;28;20960;-59
2022/09/10 08:15:59;;;;;;;2.20;1.03;;;;;;;;;;5053363;28;20444;-59
2022/09/10 08:18:26;;;;;;;2.13;1.40;;;;;;;;;;5053337;28;20472;-57
2022/09/10 08:20:55;;;;;;;3.80;1.23;;;;;;;;;;5053334;28;20538;-59
2022/09/10 08:23:22;;;;;;;3.07;1.37;;;;;;;;;;5053179;28;20455;-59
2022/09/10 08:25:50;;;;;;;3.97;1.20;;;;;;;;;;5052598;28;20448;-59
2022/09/10 08:28:18;;;;;;;2.73;1.30;;;;;;;;;;5053281;28;20820;-59
2022/09/10 08:30:45;;;;;;;1.90;1.20;;;;;;;;;;5053252;28;20495;-59
2022/09/10 08:33:12;;;;;;;2.50;1.03;;;;;;;;;;5052915;28;20455;-59
2022/09/10 08:35:38;;;;;;;3.20;1.30;;;;;;;;;;5052949;28;20535;-59
2022/09/10 08:38:07;;;;;;;1.30;1.10;;;;;;;;;;5052967;28;20486;-59
2022/09/10 08:40:34;;;;;;;2.37;1.17;;;;;;;;;;5052945;28;20883;-60
2022/09/10 08:43:02;;;;;;;1.90;1.20;;;;;;;;;;5053034;28;20448;-59
2022/09/10 08:45:30;;;;;;;4.67;1.50;;;;;;;;;;5052884;28;20785;-59
2022/09/10 08:47:59;;;;;;;2.33;1.20;;;;;;;;;;5052776;28;20563;-59
2022/09/10 08:50:32;;;;;;;3.03;1.30;;;;;;;;;;5052762;28;20448;-60
2022/09/10 08:53:04;;;;;;;2.57;1.43;;;;;;;;;;5052689;28;20448;-60
2022/09/10 08:55:33;;;;;;;1.63;1.20;;;;;;;;;;5053016;28;20448;-57
2022/09/10 08:58:03;;;;;;;2.67;1.10;;;;;;;;;;5052681;28;20535;-57
2022/09/10 09:00:33;;;;;;;2.30;1.10;;;;;;;;;;5052721;28;20452;-57
2022/09/10 09:03:01;;;;;;;1.93;1.20;;;;;;;;;;5052466;28;20998;-57
2022/09/10 09:05:30;;;;;;;2.00;1.10;;;;;;;;;;5052556;28;20452;-57
2022/09/10 09:07:58;;;;;;;1.90;1.10;;;;;;;;;;5052981;28;20452;-57
2022/09/10 09:10:30;;;;;;;1.70;1.10;;;;;;;;;;5052822;28;20932;-57
2022/09/10 09:13:16;;;;;;;1.33;1.23;;;;;;;;;;5052681;28;20888;-57
2022/09/10 09:15:50;;;;;;;3.10;1.10;;;;;;;;;;5052526;28;20455;-57
2022/09/10 09:18:22;;;;;;;1.97;0.97;;;;;;;;;;5052600;28;20439;-58
2022/09/10 09:20:51;;;;;;;2.27;1.50;;;;;;;;;;5052622;28;20543;-58
2022/09/10 09:23:20;;;;;;;1.90;1.37;;;;;;;;;;5052358;28;20547;-58
2022/09/10 09:25:48;;;;;;;1.37;1.07;;;;;;;;;;5052295;28;20459;-58
2022/09/10 09:28:19;;;;;;;4.30;1.60;;;;;;;;;;5052315;28;20452;-58
2022/09/10 09:30:48;;;;;;;3.57;1.40;;;;;;;;;;5052717;28;20531;-58
2022/09/10 09:33:19;;;;;;;3.03;1.30;;;;;;;;;;5052597;28;20460;-59
2022/09/10 09:35:47;;;;;;;1.43;0.80;;;;;;;;;;5052576;28;20918;-58
2022/09/10 09:38:18;;;;;;;1.93;0.90;;;;;;;;;;5052869;28;20491;-58
2022/09/10 09:40:46;;;;;;;3.10;2.07;;;;;;;;;;5056212;28;20483;-58
2022/09/10 09:43:15;;;;;;;1.73;1.03;;;;;;;;;;5056162;28;20547;-59
2022/09/10 09:45:44;;;;;;;1.23;1.10;;;;;;;;;;5056264;28;20543;-58
2022/09/10 09:48:12;;;;;;;2.10;1.00;;;;;;;;;;5056137;28;20470;-58
2022/09/10 09:50:42;;;;;;;5.40;1.67;;;;;;;;;;5056180;28;20444;-58
2022/09/10 09:53:10;;;;;;;1.00;0.87;;;;;;;;;;5056104;28;20973;-58
2022/09/10 09:55:39;;;;;;;1.90;1.00;;;;;;;;;;5055823;28;20450;-59
2022/09/10 09:58:25;;;;;;;3.90;1.77;;;;;;;;;;5056013;28;20452;-58
2022/09/10 10:00:54;;;;;;;3.23;1.20;;;;;;;;;;5055876;28;20440;-58
2022/09/10 10:03:24;;;;;;;1.30;1.00;;;;;;;;;;5055857;28;20908;-59
2022/09/10 10:06:00;;;;;;;1.73;1.10;;;;;;;;;;5055555;28;20448;-58
2022/09/10 10:08:29;;;;;;;1.53;1.10;;;;;;;;;;5055858;28;20490;-59
2022/09/10 10:10:56;;;;;;;1.10;1.00;;;;;;;;;;5055865;28;20550;-58
2022/09/10 10:13:24;;;;;;;1.63;1.13;;;;;;;;;;5055669;28;20523;-59
2022/09/10 10:15:52;;;;;;;2.50;1.10;;;;;;;;;;5055496;28;20542;-59
2022/09/10 10:18:30;;;;;;;1.77;1.20;;;;;;;;;;5055444;28;20480;-59
2022/09/10 10:21:13;;;;;;;5.03;2.33;;;;;;;;;;5055441;28;20463;-58
2022/09/10 10:23:39;;;;;;;2.07;1.30;;;;;;;;;;5055540;28;20538;-58
2022/09/10 10:26:17;;;;;;;2.03;1.20;;;;;;;;;;5055483;28;20803;-58
2022/09/10 10:28:46;;;;;;;2.10;1.30;;;;;;;;;;5055322;28;20456;-58
2022/09/10 10:31:13;;;;;;;1.20;1.00;;;;;;;;;;5055587;28;20438;-58
2022/09/10 10:33:46;;;;;;;1.50;1.00;;;;;;;;;;5055318;28;20444;-58
2022/09/10 10:36:16;;;;;;;1.30;1.03;;;;;;;;;;5055211;28;20918;-58
2022/09/10 10:38:45;;;;;;;1.30;1.10;;;;;;;;;;5055158;28;20839;-58
2022/09/10 10:41:35;;;;;;;2.83;1.00;;;;;;;;;;5055009;28;20539;-59
2022/09/10 10:44:08;;;;;;;2.77;1.77;;;;;;;;;;5055038;28;20456;-58
2022/09/10 10:46:41;;;;;;;2.70;1.30;;;;;;;;;;5055049;28;20472;-58
2022/09/10 10:49:17;;;;;;;4.50;1.50;;;;;;;;;;5054257;28;20570;-58
2022/09/10 10:51:51;;;;;;;1.53;0.93;;;;;;;;;;5055401;28;20522;-58
2022/09/10 10:54:27;;;;;;;1.30;1.20;;;;;;;;;;5054871;28;20963;-58
2022/09/10 10:57:00;;;;;;;1.87;1.20;;;;;;;;;;5055044;28;20501;-59
2022/09/10 10:59:35;;;;;;;2.03;0.90;;;;;;;;;;5054917;28;20472;-59
2022/09/10 11:02:12;;;;;;;2.20;0.83;;;;;;;;;;5054840;28;20558;-58
2022/09/10 11:04:44;;;;;;;1.67;1.07;;;;;;;;;;5054883;28;20452;-58
2022/09/10 11:07:14;;;;;;;1.50;1.00;;;;;;;;;;5054662;28;20908;-58
2022/09/10 11:09:43;;;;;;;2.23;1.10;;;;;;;;;;5054665;28;20899;-58
2022/09/10 11:12:12;;;;;;;1.20;1.00;;;;;;;;;;5054504;28;20474;-58
2022/09/10 11:14:43;;;;;;;1.53;1.17;;;;;;;;;;5054400;28;20758;-58
2022/09/10 11:17:12;;;;;;;2.03;1.10;;;;;;;;;;5054628;28;20452;-58
2022/09/10 11:19:42;;;;;;;1.73;1.17;;;;;;;;;;5054387;28;20987;-58
2022/09/10 11:22:13;;;;;;;4.30;1.10;;;;;;;;;;5054433;28;20456;-58
2022/09/10 11:24:44;;;;;;;1.83;1.10;;;;;;;;;;5054261;28;20459;-58
2022/09/10 11:27:13;;;;;;;2.77;0.97;;;;;;;;;;5054088;28;20509;-58
2022/09/10 11:29:41;;;;;;;1.43;1.10;;;;;;;;;;5054394;28;20544;-58
2022/09/10 11:32:12;;;;;;;1.00;0.90;;;;;;;;;;5054168;28;20529;-59
2022/09/10 11:34:42;;;;;;;1.80;1.00;;;;;;;;;;5054135;28;20539;-58
2022/09/10 11:37:13;;;;;;;5.33;0.87;;;;;;;;;;5054078;28;20448;-58
2022/09/10 11:39:42;;;;;;;1.97;1.00;;;;;;;;;;5053804;28;20484;-58
2022/09/10 11:42:13;;;;;;;3.03;1.10;;;;;;;;;;5054283;28;20452;-58
2022/09/10 11:44:45;;;;;;;2.30;1.00;;;;;;;;;;5054030;28;20452;-58
2022/09/10 11:47:14;;;;;;;1.10;1.00;;;;;;;;;;5053809;28;20547;-58
2022/09/10 11:49:47;;;;;;;2.73;0.90;;;;;;;;;;5053748;28;20444;-58
2022/09/10 11:52:15;;;;;;;1.90;0.80;;;;;;;;;;5053677;28;20448;-58
2022/09/10 11:54:43;;;;;;;1.83;0.80;;;;;;;;;;5053882;28;20543;-58
2022/09/10 11:57:12;;;;;;;1.00;0.90;;;;;;;;;;5053801;28;20490;-58
2022/09/10 11:59:45;;;;;;;1.73;0.90;;;;;;;;;;5053562;28;20484;-58
2022/09/10 12:02:21;;;;;;;3.10;1.07;;;;;;;;;;5052577;28;20543;-58
2022/09/10 12:04:55;;;;;;;2.60;1.00;;;;;;;;;;5053354;28;20555;-58
2022/09/10 12:07:31;;;;;;;2.70;0.90;;;;;;;;;;5053609;28;20535;-58
2022/09/10 12:10:05;;;;;;;1.03;0.93;;;;;;;;;;5053791;28;20538;-58
2022/09/10 12:12:36;;;;;;;1.80;1.00;;;;;;;;;;5053626;28;20502;-57
2022/09/10 12:15:07;;;;;;;1.20;1.00;;;;;;;;;;5053295;28;20458;-57
2022/09/10 12:17:36;;;;;;;2.17;0.90;;;;;;;;;;5053443;28;20491;-58
2022/09/10 12:20:04;;;;;;;3.60;1.37;;;;;;;;;;5053426;28;20491;-58
2022/09/10 12:22:34;;;;;;;3.60;1.30;;;;;;;;;;5053208;28;20456;-58
2022/09/10 12:25:03;;;;;;;1.10;0.93;;;;;;;;;;5053277;28;20453;-60
2022/09/10 12:27:46;;;;;;;1.37;0.93;;;;;;;;;;5053336;28;20448;-57
2022/09/10 12:30:41;;;;;;;1.40;1.30;;;;;;;;;;5053349;28;20551;-58
2022/09/10 12:33:35;;;;;;;1.17;1.07;;;;;;;;;;5018148;28;20451;-57
2022/09/10 12:36:02;;;;;;;2.20;1.13;;;;;;;;;;5053042;28;20858;-57
2022/09/10 12:38:50;;;;;;;3.20;0.90;;;;;;;;;;5053103;28;20456;-58
2022/09/10 12:41:36;;;;;;;1.60;0.90;;;;;;;;;;5052943;28;20487;-60
2022/09/10 12:44:04;;;;;;;1.33;1.03;;;;;;;;;;5052809;28;20563;-57
2022/09/10 12:46:31;;;;;;;1.20;0.90;;;;;;;;;;5053067;28;20462;-58
2022/09/10 12:49:06;;;;;;;2.90;1.20;;;;;;;;;;5052910;28;20480;-58
2022/09/10 12:51:37;;;;;;;5.97;1.30;;;;;;;;;;5053005;28;21012;-57
2022/09/10 12:54:28;;;;;;;1.20;0.87;;;;;;;;;;5052852;28;20454;-58
2022/09/10 12:57:08;;;;;;;3.53;0.90;;;;;;;;;;5052690;28;20950;-57
2022/09/10 13:00:00;;;;;;;2.73;1.13;;;;;;;;;;5052827;28;20483;-57
2022/09/10 13:02:29;;;;;;;1.83;1.00;;;;;;;;;;5052763;28;21051;-57
2022/09/10 13:04:58;;;;;;;1.70;0.90;;;;;;;;;;5052667;28;20454;-58
2022/09/10 13:07:31;;;;;;;1.47;1.20;;;;;;;;;;5052814;28;20459;-58
2022/09/10 13:10:02;;;;;;;4.53;1.00;;;;;;;;;;5052667;28;20463;-57
2022/09/10 13:12:31;;;;;;;2.60;0.90;;;;;;;;;;5053630;28;20970;-57
2022/09/10 13:15:00;;;;;;;1.47;1.07;;;;;;;;;;5056716;28;20456;-57
2022/09/10 13:17:37;;;;;;;1.60;1.13;;;;;;;;;;5056648;28;20943;-58
2022/09/10 13:20:13;;;;;;;1.63;1.00;;;;;;;;;;5056733;28;20484;-57
2022/09/10 13:23:02;;;;;;;3.13;1.10;;;;;;;;;;5056619;28;20810;-57
2022/09/10 13:25:39;;;;;;;4.93;1.07;;;;;;;;;;5056538;28;20452;-57
2022/09/10 13:28:20;;;;;;;3.53;1.27;;;;;;;;;;5056780;28;20751;-57
2022/09/10 13:30:48;;;;;;;1.33;1.10;;;;;;;;;;5056177;28;20539;-57
2022/09/10 13:33:16;;;;;;;1.20;1.10;;;;;;;;;;5056381;28;20448;-57
2022/09/10 13:35:57;;;;;;;1.40;1.00;;;;;;;;;;5056391;28;20793;-57
2022/09/10 13:38:39;;;;;;;2.60;1.20;;;;;;;;;;5056161;28;20452;-57
2022/09/10 13:41:22;;;;;;;1.93;0.90;;;;;;;;;;5056369;28;20515;-58
2022/09/10 13:44:01;;;;;;;1.83;0.90;;;;;;;;;;5056207;28;20448;-57
2022/09/10 13:46:34;;;;;;;1.07;0.83;;;;;;;;;;5056017;28;20455;-57
2022/09/10 13:49:06;;;;;;;1.40;1.17;;;;;;;;;;5056214;28;20820;-57
2022/09/10 13:51:35;;;;;;;1.50;1.07;;;;;;;;;;5056202;28;20456;-58
2022/09/10 13:54:06;;;;;;;1.63;1.03;;;;;;;;;;5056095;28;20452;-57
2022/09/10 13:56:35;;;;;;;1.27;0.90;;;;;;;;;;5056067;28;20967;-57
2022/09/10 13:59:03;;;;;;;1.90;1.00;;;;;;;;;;5055809;28;20462;-58
2022/09/10 14:01:48;;;;;;;1.20;0.80;;;;;;;;;;5055963;28;20491;-57
2022/09/10 14:04:22;;;;;;;3.13;1.00;;;;;;;;;;5055976;28;20829;-57
2022/09/10 14:06:49;;;;;;;2.80;0.80;;;;;;;;;;5055639;28;20447;-57
2022/09/10 14:09:16;;;;;;;1.50;1.10;;;;;;;;;;5055781;28;20539;-57
2022/09/10 14:11:44;;;;;;;1.17;0.80;;;;;;;;;;5055519;28;20491;-57
2022/09/10 14:14:13;;;;;;;0.87;0.83;;;;;;;;;;5055689;28;20453;-57
2022/09/10 14:16:41;;;;;;;0.80;0.70;;;;;;;;;;5055698;28;20451;-57
2022/09/10 14:19:15;;;;;;;0.80;0.80;;;;;;;;;;5055688;28;20969;-57
2022/09/10 14:21:42;;;;;;;0.97;0.70;;;;;;;;;;5055504;28;20537;-57
2022/09/10 14:24:26;;;;;;;1.60;0.60;;;;;;;;;;5054465;28;20451;-57
2022/09/10 14:27:06;;;;;;;0.77;0.70;;;;;;;;;;5055543;28;20452;-57
2022/09/10 14:29:36;;;;;;;1.20;0.60;;;;;;;;;;5055560;28;20819;-57
2022/09/10 14:32:21;;;;;;;0.70;0.60;;;;;;;;;;5055318;28;20855;-57
2022/09/10 14:34:48;;;;;;;0.70;0.50;;;;;;;;;;5055244;28;20955;-57
2022/09/10 14:37:25;;;;;;;0.70;0.60;;;;;;;;;;5055395;28;20448;-57
2022/09/10 14:39:52;;;;;;;0.70;0.50;;;;;;;;;;5055191;28;20471;-57
2022/09/10 14:42:26;;;;;;;1.20;0.63;;;;;;;;;;5055099;28;20447;-57
2022/09/10 14:44:53;;;;;;;0.70;0.70;;;;;;;;;;5054966;28;20455;-58
2022/09/10 14:47:28;;;;;;;0.80;0.70;;;;;;;;;;5054701;28;20539;-58
2022/09/10 14:49:56;;;;;;;1.00;0.60;;;;;;;;;;5055141;28;20444;-58
2022/09/10 14:52:23;;;;;;;1.67;0.67;;;;;;;;;;5054940;28;20445;-57
2022/09/10 14:54:50;;;;;;;1.90;0.70;;;;;;;;;;5054929;28;20494;-57
2022/09/10 14:57:17;;;;;;;1.10;0.83;;;;;;;;;;5054780;28;20815;-57
2022/09/10 14:59:46;;;;;;;0.70;0.60;;;;;;;;;;5054687;28;20514;-57
2022/09/10 15:02:15;;;;;;;1.60;0.80;;;;;;;;;;5054793;28;20484;-60
2022/09/10 15:04:42;;;;;;;1.37;0.90;;;;;;;;;;5054793;28;20456;-57